Time;durP1;ratioP1;P1;durP2;ratioP2;P2;SDS_P1;SDS_P2;PMS_P1;PMS_P2;Temp;Humidity;BMP_temperature;BMP_pressure;BME280_temperature;BME280_humidity;BME280_pressure;Samples;Min_cycle;Max_cycle;Signal;HPM_P1;HPM_P2
2023/02/25 00:01:25;;;;;;;12.57;5.05;;;4.30;99.90;;;;;;8423234;28;20028;-82
2023/02/25 00:05:26;;;;;;;10.32;4.28;;;4.40;99.90;;;;;;8415624;28;20030;-83
2023/02/25 00:09:27;;;;;;;14.07;2.88;;;4.30;99.90;;;;;;8411272;28;20016;-83
2023/02/25 00:13:28;;;;;;;5.03;1.40;;;3.80;99.90;;;;;;8414766;28;20106;-83
2023/02/25 00:17:29;;;;;;;1.45;0.73;;;3.50;99.90;;;;;;8410905;28;20024;-83
2023/02/25 00:21:30;;;;;;;1.55;0.73;;;3.30;99.90;;;;;;8408190;28;20050;-83
2023/02/25 00:25:30;;;;;;;1.38;0.88;;;3.10;99.90;;;;;;8419496;28;20024;-83
2023/02/25 00:29:31;;;;;;;2.10;1.27;;;3.10;99.90;;;;;;8410218;28;20017;-84
2023/02/25 00:33:31;;;;;;;1.27;0.75;;;3.10;99.90;;;;;;8416657;28;20017;-83
2023/02/25 00:37:32;;;;;;;1.15;0.80;;;3.10;99.90;;;;;;8417943;28;20054;-84
2023/02/25 00:41:32;;;;;;;2.47;1.05;;;3.10;99.90;;;;;;8414359;28;20020;-83
2023/02/25 00:45:33;;;;;;;0.60;0.47;;;3.10;99.90;;;;;;8409286;28;20085;-83
2023/02/25 00:49:34;;;;;;;1.85;1.13;;;3.00;99.90;;;;;;8416423;28;20028;-82
2023/02/25 00:53:34;;;;;;;1.85;1.10;;;3.10;99.90;;;;;;8409445;28;20401;-83
2023/02/25 00:57:35;;;;;;;1.33;0.75;;;3.10;99.90;;;;;;8414499;28;20035;-82
2023/02/25 01:01:36;;;;;;;2.10;1.02;;;3.10;99.90;;;;;;8418806;28;20069;-82
2023/02/25 01:05:40;;;;;;;1.90;1.20;;;3.10;99.90;;;;;;8418052;28;20070;-83
2023/02/25 01:09:41;;;;;;;1.52;1.20;;;3.10;99.90;;;;;;8417219;28;20029;-82
2023/02/25 01:13:42;;;;;;;1.88;1.35;;;3.00;99.90;;;;;;8418150;28;20020;-82
2023/02/25 01:17:43;;;;;;;2.95;1.58;;;3.10;99.90;;;;;;8422234;28;20496;-83
2023/02/25 01:21:46;;;;;;;3.38;1.60;;;3.30;99.90;;;;;;8404163;28;20032;-83
2023/02/25 01:25:46;;;;;;;4.57;2.20;;;3.20;99.90;;;;;;8421308;28;20067;-82
2023/02/25 01:29:47;;;;;;;5.70;2.03;;;3.30;99.90;;;;;;8422831;28;20488;-82
2023/02/25 01:33:47;;;;;;;4.45;2.22;;;3.30;99.90;;;;;;8422976;28;20020;-81
2023/02/25 01:37:48;;;;;;;2.95;2.00;;;3.20;99.90;;;;;;8411844;28;20017;-83
2023/02/25 01:41:50;;;;;;;2.55;1.50;;;3.20;99.90;;;;;;8427165;28;20072;-82
2023/02/25 01:45:53;;;;;;;4.30;2.63;;;3.20;99.90;;;;;;8414844;28;20027;-82
2023/02/25 01:49:53;;;;;;;4.68;2.50;;;3.20;99.90;;;;;;8414006;28;20028;-81
2023/02/25 01:53:56;;;;;;;5.38;2.55;;;3.30;99.90;;;;;;8414369;28;20541;-82
2023/02/25 01:58:00;;;;;;;5.18;2.45;;;3.20;99.90;;;;;;8420988;28;20024;-82
2023/02/25 02:02:00;;;;;;;7.40;3.35;;;3.20;99.90;;;;;;8414237;28;20056;-80
2023/02/25 02:06:14;;;;;;;3.67;2.13;;;3.10;99.90;;;;;;8423487;28;20050;-82
2023/02/25 02:10:14;;;;;;;5.70;2.75;;;3.00;99.90;;;;;;8421242;28;20029;-82
2023/02/25 02:14:19;;;;;;;6.18;2.70;;;2.90;99.90;;;;;;8411718;28;20031;-82
2023/02/25 02:18:20;;;;;;;4.82;2.53;;;2.90;99.90;;;;;;8411689;28;20024;-82
2023/02/25 02:22:35;;;;;;;6.50;3.38;;;2.80;99.90;;;;;;8424804;28;20052;-81
2023/02/25 02:26:50;;;;;;;7.75;3.25;;;2.80;99.90;;;;;;8412389;28;20516;-79
2023/02/25 02:31:29;;;;;;;7.53;3.80;;;2.50;99.90;;;;;;8407691;28;20056;-80
2023/02/25 02:35:46;;;;;;;5.88;3.72;;;2.40;99.90;;;;;;8417511;28;20016;-81
2023/02/25 02:40:14;;;;;;;6.30;3.05;;;2.70;99.90;;;;;;8419918;28;20016;-80
2023/02/25 02:44:40;;;;;;;7.13;3.10;;;2.70;99.90;;;;;;8409883;28;20024;-80
2023/02/25 02:48:49;;;;;;;6.13;3.33;;;2.50;99.90;;;;;;8408352;28;20048;-80
2023/02/25 02:52:52;;;;;;;7.05;3.65;;;2.20;99.90;;;;;;8407861;28;20111;-81
2023/02/25 02:56:54;;;;;;;7.18;3.65;;;2.10;99.90;;;;;;8405225;28;20035;-79
2023/02/25 03:01:07;;;;;;;6.20;3.72;;;2.10;99.90;;;;;;8401982;28;20540;-82
2023/02/25 03:05:15;;;;;;;5.82;3.45;;;2.10;99.90;;;;;;8413376;28;20031;-81
2023/02/25 03:09:20;;;;;;;6.63;3.10;;;2.10;99.90;;;;;;8416901;28;20020;-81
2023/02/25 03:13:21;;;;;;;5.80;3.00;;;2.10;99.90;;;;;;8407797;28;20029;-81
2023/02/25 03:17:27;;;;;;;7.00;3.40;;;2.20;99.90;;;;;;8419019;28;20393;-81
2023/02/25 03:21:36;;;;;;;5.82;3.08;;;2.10;99.90;;;;;;8419826;28;20029;-81
2023/02/25 03:25:46;;;;;;;5.70;3.17;;;2.30;99.90;;;;;;8416819;28;20522;-81
2023/02/25 03:29:47;;;;;;;;;;;2.20;99.90;;;;;;8414256;28;20096;-81
2023/02/25 03:33:59;;;;;;;8.88;2.95;;;2.20;99.90;;;;;;8408777;28;19977;-80
2023/02/25 03:38:04;;;;;;;7.97;3.17;;;2.30;99.90;;;;;;8403527;28;20412;-81
2023/02/25 03:42:10;;;;;;;5.93;2.92;;;2.20;99.90;;;;;;8415333;28;20028;-81
2023/02/25 03:46:13;;;;;;;7.00;3.40;;;2.20;99.90;;;;;;8410333;28;20024;-80
2023/02/25 03:50:30;;;;;;;6.80;3.33;;;2.40;99.90;;;;;;8416209;28;20040;-78
2023/02/25 03:54:30;;;;;;;6.15;3.17;;;2.60;99.90;;;;;;8403291;28;20027;-81
2023/02/25 03:58:41;;;;;;;5.88;3.20;;;2.70;99.90;;;;;;8406792;28;20027;-80
2023/02/25 04:02:43;;;;;;;4.88;2.63;;;2.70;99.90;;;;;;8415775;28;20032;-79
2023/02/25 04:06:44;;;;;;;5.93;2.85;;;2.90;99.90;;;;;;8408500;28;20039;-80
2023/02/25 04:10:45;;;;;;;6.47;3.17;;;2.60;99.90;;;;;;8410252;28;20504;-81
2023/02/25 04:14:46;;;;;;;5.72;2.97;;;2.50;99.90;;;;;;8410796;28;20028;-79
2023/02/25 04:18:46;;;;;;;8.82;3.88;;;2.80;99.90;;;;;;8412612;28;20031;-80
2023/02/25 04:22:47;;;;;;;7.00;3.25;;;2.90;99.90;;;;;;8404643;28;20017;-81
2023/02/25 04:26:47;;;;;;;7.70;3.70;;;2.80;99.90;;;;;;8416342;28;20051;-81
2023/02/25 04:30:48;;;;;;;6.78;3.40;;;2.70;99.90;;;;;;8398696;28;20024;-81
2023/02/25 04:34:48;;;;;;;7.43;3.25;;;2.70;99.90;;;;;;8408077;28;20051;-81
2023/02/25 04:38:49;;;;;;;5.78;2.95;;;2.60;99.90;;;;;;8399852;28;20111;-80
2023/02/25 04:42:50;;;;;;;11.77;4.25;;;2.60;99.90;;;;;;8399606;28;20028;-80
2023/02/25 04:46:50;;;;;;;5.53;3.33;;;2.60;99.90;;;;;;8413730;28;20012;-81
2023/02/25 04:50:51;;;;;;;5.32;3.10;;;2.70;99.90;;;;;;8395130;28;20028;-80
2023/02/25 04:54:52;;;;;;;7.70;3.35;;;3.00;99.90;;;;;;8401919;28;20642;-81
2023/02/25 04:58:52;;;;;;;6.43;3.75;;;3.10;99.90;;;;;;8411187;28;20028;-81
2023/02/25 05:02:53;;;;;;;7.68;3.92;;;2.80;99.90;;;;;;8409971;28;20550;-79
2023/02/25 05:06:54;;;;;;;8.02;4.13;;;2.90;99.90;;;;;;8413426;28;20100;-80
2023/02/25 05:10:54;;;;;;;7.80;3.92;;;3.20;99.90;;;;;;8406217;28;20040;-80
2023/02/25 05:14:55;;;;;;;7.70;3.75;;;2.90;99.90;;;;;;8410997;28;20020;-80
2023/02/25 05:18:55;;;;;;;9.75;4.03;;;2.80;99.90;;;;;;8408100;28;20044;-81
2023/02/25 05:22:57;;;;;;;4.90;2.70;;;2.60;99.90;;;;;;8404733;28;20020;-80
2023/02/25 05:27:07;;;;;;;4.05;2.28;;;3.00;99.90;;;;;;8418161;28;20024;-79
2023/02/25 05:31:10;;;;;;;6.15;2.80;;;3.00;99.90;;;;;;8422458;28;20019;-79
2023/02/25 05:35:11;;;;;;;9.68;2.67;;;2.80;99.90;;;;;;8412537;28;20033;-80
2023/02/25 05:39:12;;;;;;;2.92;1.75;;;2.50;99.90;;;;;;8419300;28;20034;-78
2023/02/25 05:43:12;;;;;;;4.00;2.33;;;2.40;99.90;;;;;;8411455;28;20025;-80
2023/02/25 05:47:14;;;;;;;3.40;1.98;;;2.20;99.90;;;;;;8404974;28;20028;-81
2023/02/25 05:51:17;;;;;;;3.08;2.03;;;2.20;99.90;;;;;;8417169;28;20089;-81
2023/02/25 05:55:18;;;;;;;4.70;2.40;;;2.10;99.90;;;;;;8411828;28;20048;-82
2023/02/25 05:59:18;;;;;;;3.45;0.95;;;2.20;99.90;;;;;;8412669;28;20443;-81
2023/02/25 06:03:19;;;;;;;3.08;1.73;;;2.30;99.90;;;;;;8407795;28;20107;-82
2023/02/25 06:07:20;;;;;;;2.47;1.52;;;2.30;99.90;;;;;;8405384;28;20078;-82
2023/02/25 06:11:23;;;;;;;3.20;1.80;;;2.30;99.90;;;;;;8415015;28;20025;-81
2023/02/25 06:15:24;;;;;;;5.53;2.28;;;2.20;99.90;;;;;;8401469;28;20513;-81
2023/02/25 06:19:25;;;;;;;6.72;2.30;;;2.00;99.90;;;;;;8412612;28;20028;-82
2023/02/25 06:23:25;;;;;;;3.38;1.95;;;1.80;99.90;;;;;;8411925;28;20019;-82
2023/02/25 06:27:26;;;;;;;4.55;2.30;;;1.70;99.90;;;;;;8418323;28;20019;-82
2023/02/25 06:31:26;;;;;;;4.55;1.83;;;2.00;99.90;;;;;;8403776;28;20034;-82
2023/02/25 06:35:27;;;;;;;4.47;2.20;;;2.10;99.90;;;;;;8408085;28;20052;-83
2023/02/25 06:39:28;;;;;;;7.53;2.00;;;2.00;99.90;;;;;;8411339;28;20025;-82
2023/02/25 06:43:28;;;;;;;5.78;2.38;;;2.20;99.90;;;;;;8408321;28;20078;-81
2023/02/25 06:47:29;;;;;;;3.50;1.77;;;2.10;99.90;;;;;;8411069;28;20485;-82
2023/02/25 06:51:29;;;;;;;8.18;2.55;;;2.30;99.90;;;;;;8414001;28;20028;-83
2023/02/25 06:55:30;;;;;;;6.65;2.08;;;2.30;99.90;;;;;;8407788;28;20067;-82
2023/02/25 06:59:30;;;;;;;5.15;1.80;;;2.30;99.90;;;;;;8422798;28;20021;-83
2023/02/25 07:03:31;;;;;;;4.05;1.75;;;2.30;99.90;;;;;;8413212;28;20046;-82
2023/02/25 07:07:31;;;;;;;3.42;1.98;;;2.30;99.90;;;;;;8416434;28;20502;-83
2023/02/25 07:11:33;;;;;;;5.88;2.25;;;2.20;99.90;;;;;;8416588;28;20017;-82
2023/02/25 07:15:34;;;;;;;4.72;2.25;;;2.10;99.90;;;;;;8410983;28;20021;-80
2023/02/25 07:19:35;;;;;;;5.00;2.30;;;2.00;99.90;;;;;;8420719;28;20035;-82
2023/02/25 07:23:35;;;;;;;2.95;1.50;;;2.10;99.90;;;;;;8408875;28;20026;-82
2023/02/25 07:27:39;;;;;;;6.50;2.30;;;2.00;99.90;;;;;;8401984;28;20021;-82
2023/02/25 07:31:40;;;;;;;5.28;2.28;;;2.10;99.90;;;;;;8427507;28;20431;-82
2023/02/25 07:35:40;;;;;;;3.92;1.85;;;2.10;99.90;;;;;;8412127;28;20078;-83
2023/02/25 07:39:41;;;;;;;3.25;1.88;;;2.20;99.90;;;;;;8409149;28;20078;-82
2023/02/25 07:43:42;;;;;;;4.20;2.17;;;2.30;99.90;;;;;;8403383;28;20028;-83
2023/02/25 07:47:43;;;;;;;5.82;2.35;;;2.30;99.90;;;;;;8401569;28;20033;-82
2023/02/25 07:51:43;;;;;;;7.03;2.08;;;2.50;99.90;;;;;;8411181;28;20027;-83
2023/02/25 07:55:44;;;;;;;6.28;2.30;;;3.30;99.90;;;;;;8402019;28;20507;-81
2023/02/25 07:59:44;;;;;;;8.30;2.40;;;3.90;99.90;;;;;;8405573;28;20067;-82
2023/02/25 08:03:47;;;;;;;4.47;1.98;;;3.90;99.90;;;;;;8429400;28;20051;-83
2023/02/25 08:07:47;;;;;;;4.82;2.35;;;4.00;99.90;;;;;;8415120;28;20016;-82
2023/02/25 08:11:48;;;;;;;4.43;2.30;;;4.10;99.90;;;;;;8408096;28;20073;-82
2023/02/25 08:15:48;;;;;;;3.67;2.20;;;4.10;99.90;;;;;;8413169;28;20140;-82
2023/02/25 08:19:49;;;;;;;5.65;2.08;;;3.80;99.90;;;;;;8414023;28;20078;-81
2023/02/25 08:23:53;;;;;;;4.85;1.70;;;3.80;99.90;;;;;;8407696;28;20032;-82
2023/02/25 08:27:53;;;;;;;3.53;1.70;;;4.10;99.90;;;;;;8403498;28;20024;-82
2023/02/25 08:31:54;;;;;;;1.17;0.80;;;4.20;99.90;;;;;;8406327;28;20374;-80
2023/02/25 08:36:04;;;;;;;2.83;1.15;;;4.40;99.90;;;;;;8410860;28;20028;-81
2023/02/25 08:40:09;;;;;;;4.63;1.40;;;3.90;99.90;;;;;;8410971;28;20077;-82
2023/02/25 08:44:10;;;;;;;5.20;1.13;;;4.00;99.90;;;;;;8412867;28;20028;-82
2023/02/25 08:48:12;;;;;;;4.22;1.10;;;4.10;99.90;;;;;;8414221;28;20043;-82
2023/02/25 08:52:14;;;;;;;2.42;1.00;;;4.20;99.90;;;;;;8410229;28;20027;-83
2023/02/25 08:56:15;;;;;;;5.13;0.93;;;4.30;99.90;;;;;;8412562;28;20087;-82
2023/02/25 09:00:16;;;;;;;1.30;0.55;;;4.30;99.90;;;;;;8397236;28;20020;-81
2023/02/25 09:04:20;;;;;;;1.98;0.93;;;4.30;99.90;;;;;;8425327;28;20020;-82
2023/02/25 09:08:23;;;;;;;2.08;0.75;;;4.30;99.90;;;;;;8402161;28;20028;-82
2023/02/25 09:12:24;;;;;;;1.25;0.52;;;4.40;99.90;;;;;;8395699;28;20051;-82
2023/02/25 09:16:27;;;;;;;1.73;1.00;;;4.50;99.90;;;;;;8411775;28;20027;-82
2023/02/25 09:20:28;;;;;;;2.67;1.02;;;4.40;99.90;;;;;;8406963;28;20057;-86
2023/02/25 09:24:29;;;;;;;0.57;0.30;;;4.60;99.90;;;;;;8392252;28;20028;-85
2023/02/25 09:28:50;;;;;;;1.15;0.60;;;4.50;99.90;;;;;;8412043;28;20515;-85
2023/02/25 09:32:50;;;;;;;3.33;0.85;;;4.00;99.90;;;;;;8407041;28;20032;-85
2023/02/25 09:36:51;;;;;;;3.35;1.00;;;4.20;99.90;;;;;;8419791;28;20487;-84
2023/02/25 09:40:51;;;;;;;1.63;0.77;;;4.80;99.90;;;;;;8408315;28;20028;-83
2023/02/25 09:45:00;;;;;;;2.33;1.00;;;5.70;99.90;;;;;;8405610;28;20025;-82
2023/02/25 09:49:19;;;;;;;1.08;0.68;;;6.10;99.90;;;;;;8425693;28;20024;-83
2023/02/25 09:53:37;;;;;;;0.40;0.30;;;5.90;99.90;;;;;;8418520;28;20131;-84
2023/02/25 09:57:42;;;;;;;2.00;0.57;;;5.70;99.90;;;;;;8421300;28;20082;-83
2023/02/25 10:01:48;;;;;;;1.50;0.90;;;5.90;99.90;;;;;;8395981;28;20038;-82
2023/02/25 10:06:06;;;;;;;0.60;0.25;;;6.50;99.90;;;;;;8407526;28;20550;-82
2023/02/25 10:10:54;;;;;;;1.15;0.75;;;6.00;99.90;;;;;;8415829;28;20510;-83
2023/02/25 10:15:21;;;;;;;1.30;0.38;;;5.70;99.90;;;;;;8396126;28;20031;-81
2023/02/25 10:19:36;;;;;;;0.55;0.35;;;5.50;99.90;;;;;;8409603;28;20381;-81
2023/02/25 10:23:54;;;;;;;0.90;0.50;;;5.40;99.90;;;;;;8413863;28;20388;-81
2023/02/25 10:28:00;;;;;;;0.77;0.32;;;4.70;99.90;;;;;;8423543;28;20016;-81
2023/02/25 10:32:32;;;;;;;1.35;0.50;;;4.80;99.90;;;;;;8407245;28;20387;-80
2023/02/25 10:36:42;;;;;;;7.15;1.85;;;5.30;99.90;;;;;;8402735;28;20024;-80
2023/02/25 10:40:43;;;;;;;2.70;0.77;;;6.90;99.90;;;;;;8404849;28;20025;-82
2023/02/25 10:44:44;;;;;;;1.52;0.90;;;8.10;99.90;;;;;;8406548;28;20040;-80
2023/02/25 10:48:53;;;;;;;0.52;0.35;;;8.60;99.90;;;;;;8412357;28;20111;-81
2023/02/25 10:52:58;;;;;;;2.23;0.50;;;7.50;99.90;;;;;;8395766;28;20048;-81
2023/02/25 10:57:07;;;;;;;0.55;0.28;;;6.60;99.90;;;;;;8405180;28;20025;-81
2023/02/25 11:01:20;;;;;;;1.85;0.55;;;6.00;99.90;;;;;;8411067;28;20028;-81
2023/02/25 11:05:47;;;;;;;0.88;0.55;;;6.20;99.90;;;;;;8409811;28;20022;-82
2023/02/25 11:09:48;;;;;;;3.47;0.57;;;6.20;99.90;;;;;;8397513;28;20088;-81
2023/02/25 11:14:00;;;;;;;1.52;0.60;;;6.10;99.90;;;;;;8404151;28;20031;-81
2023/02/25 11:18:13;;;;;;;1.95;0.50;;;6.40;99.90;;;;;;8409358;28;20028;-81
2023/02/25 11:22:40;;;;;;;1.30;0.40;;;6.50;99.90;;;;;;8419850;28;20025;-83
2023/02/25 11:26:49;;;;;;;3.67;0.68;;;7.40;99.90;;;;;;8403901;28;20032;-83
2023/02/25 11:30:50;;;;;;;0.35;0.35;;;7.80;99.90;;;;;;8421943;28;20020;-83
2023/02/25 11:34:55;;;;;;;1.13;0.63;;;8.40;99.90;;;;;;8407987;28;20036;-84
2023/02/25 11:39:07;;;;;;;1.05;0.68;;;7.70;99.90;;;;;;8407888;28;20046;-85
2023/02/25 11:43:16;;;;;;;0.63;0.30;;;8.70;99.90;;;;;;8399220;28;20517;-83
2023/02/25 11:47:36;;;;;;;0.57;0.20;;;9.10;99.90;;;;;;8416020;28;20047;-80
2023/02/25 11:51:45;;;;;;;;;;;7.40;99.90;;;;;;8420592;28;20035;-81
2023/02/25 11:56:13;;;;;;;0.30;0.30;;;5.80;99.90;;;;;;8397356;28;19915;-82
2023/02/25 12:00:52;;;;;;;2.85;0.90;;;5.00;99.90;;;;;;8405628;28;20024;-81
2023/02/25 12:05:26;;;;;;;0.30;0.30;;;5.20;99.90;;;;;;8400168;28;20052;-83
2023/02/25 12:09:58;;;;;;;1.40;0.88;;;5.10;99.90;;;;;;8399243;28;20024;-83
2023/02/25 12:14:22;;;;;;;0.35;0.32;;;5.10;99.90;;;;;;8393049;28;20027;-81
2023/02/25 12:18:50;;;;;;;0.57;0.28;;;5.20;99.90;;;;;;8395901;28;20035;-82
2023/02/25 12:23:28;;;;;;;1.25;0.60;;;5.00;99.90;;;;;;8410857;28;20036;-83
2023/02/25 12:27:46;;;;;;;0.25;0.25;;;5.50;99.90;;;;;;8404344;28;20035;-82
2023/02/25 12:32:12;;;;;;;1.63;0.75;;;5.60;99.90;;;;;;8417527;28;20027;-82
2023/02/25 12:36:54;;;;;;;1.08;0.55;;;5.80;99.90;;;;;;8402452;28;20725;-81
2023/02/25 12:41:31;;;;;;;1.05;0.55;;;6.10;99.90;;;;;;8394448;28;20036;-82
2023/02/25 12:45:39;;;;;;;0.70;0.70;;;6.10;99.90;;;;;;8407495;28;20111;-83
2023/02/25 12:49:51;;;;;;;2.33;0.65;;;7.30;99.90;;;;;;8404838;28;20468;-84
2023/02/25 12:54:37;;;;;;;4.68;1.05;;;6.90;99.90;;;;;;8401370;28;20481;-82
2023/02/25 12:58:52;;;;;;;2.47;0.43;;;6.70;99.90;;;;;;8412448;28;20027;-83
2023/02/25 13:03:20;;;;;;;1.50;0.70;;;6.40;99.90;;;;;;8401290;28;20031;-83
2023/02/25 13:07:34;;;;;;;0.52;0.25;;;6.10;99.90;;;;;;8418024;28;20020;-83
2023/02/25 13:11:56;;;;;;;1.42;0.80;;;6.20;99.90;;;;;;8399667;28;20020;-83
2023/02/25 13:16:14;;;;;;;2.28;1.05;;;6.40;99.90;;;;;;8408408;28;20032;-84
2023/02/25 13:20:25;;;;;;;1.67;0.93;;;6.10;99.90;;;;;;8408782;28;20029;-83
2023/02/25 13:24:55;;;;;;;0.82;0.38;;;5.40;99.90;;;;;;8402874;28;20017;-84
2023/02/25 13:29:22;;;;;;;1.60;0.73;;;5.40;99.90;;;;;;8413029;28;20021;-83
2023/02/25 13:33:55;;;;;;;2.55;0.65;;;5.60;99.90;;;;;;8419530;28;20086;-83
2023/02/25 13:38:22;;;;;;;1.08;0.47;;;6.10;99.90;;;;;;8412170;28;20017;-83
2023/02/25 13:43:02;;;;;;;1.17;0.50;;;5.60;99.90;;;;;;8414907;28;20029;-83
2023/02/25 13:47:27;;;;;;;0.75;0.50;;;5.20;99.90;;;;;;8415271;28;20034;-83
2023/02/25 13:52:06;;;;;;;0.60;0.60;;;5.60;99.90;;;;;;8407777;28;20376;-83
2023/02/25 13:56:16;;;;;;;4.43;0.52;;;5.80;99.90;;;;;;8413167;28;20030;-83
2023/02/25 14:00:38;;;;;;;0.88;0.47;;;5.70;99.90;;;;;;8423730;28;20024;-84
2023/02/25 14:05:17;;;;;;;0.52;0.28;;;5.40;99.90;;;;;;8413654;28;20029;-83
2023/02/25 14:09:34;;;;;;;1.35;0.30;;;4.90;99.90;;;;;;8408401;28;20065;-83
2023/02/25 14:13:44;;;;;;;0.93;0.38;;;5.00;99.90;;;;;;8411332;28;20061;-83
2023/02/25 14:17:47;;;;;;;3.20;0.40;;;5.00;99.90;;;;;;8413328;28;20029;-83
2023/02/25 14:22:10;;;;;;;0.93;0.50;;;5.40;99.90;;;;;;8418518;28;20365;-83
2023/02/25 14:26:28;;;;;;;0.77;0.40;;;5.50;99.90;;;;;;8427271;28;20023;-83
2023/02/25 14:30:38;;;;;;;1.95;0.50;;;5.70;99.90;;;;;;8414728;28;20099;-84
2023/02/25 14:35:05;;;;;;;;;;;6.10;99.90;;;;;;8417900;28;20107;-84
2023/02/25 14:39:38;;;;;;;0.40;0.40;;;6.90;99.90;;;;;;8414032;28;19915;-83
2023/02/25 14:43:39;;;;;;;0.88;0.63;;;6.60;99.90;;;;;;8397873;28;20425;-83
2023/02/25 14:47:51;;;;;;;1.27;0.55;;;6.20;99.90;;;;;;8427249;28;20020;-83
2023/02/25 14:52:34;;;;;;;0.47;0.43;;;5.80;99.90;;;;;;8417327;28;20066;-83
2023/02/25 14:56:49;;;;;;;2.00;0.80;;;5.40;99.90;;;;;;8405088;28;20044;-83
2023/02/25 15:01:11;;;;;;;1.90;0.30;;;4.90;99.90;;;;;;8414572;28;20080;-83
2023/02/25 15:05:19;;;;;;;0.68;0.50;;;4.50;99.90;;;;;;8414008;28;20052;-84
2023/02/25 15:09:57;;;;;;;0.63;0.50;;;4.60;99.90;;;;;;8421686;28;20400;-83
2023/02/25 15:14:01;;;;;;;1.30;0.90;;;4.90;99.90;;;;;;8408839;28;20031;-83
2023/02/25 15:18:08;;;;;;;0.98;0.73;;;5.10;99.90;;;;;;8400592;28;20052;-84
2023/02/25 15:22:25;;;;;;;1.98;0.70;;;5.20;99.90;;;;;;8416796;28;20051;-83
2023/02/25 15:26:47;;;;;;;3.22;1.08;;;5.10;99.90;;;;;;8416633;28;20020;-84
2023/02/25 15:31:27;;;;;;;1.25;0.82;;;5.10;99.90;;;;;;8410963;28;20066;-84
2023/02/25 15:35:34;;;;;;;3.38;1.40;;;4.90;99.90;;;;;;8395481;28;20401;-84
2023/02/25 15:39:40;;;;;;;1.67;1.00;;;4.80;99.90;;;;;;8411714;28;20598;-83
2023/02/25 15:43:42;;;;;;;1.77;0.85;;;4.80;99.90;;;;;;8407461;28;20473;-83
2023/02/25 15:47:46;;;;;;;2.47;1.00;;;4.60;99.90;;;;;;8410319;28;20028;-83
2023/02/25 15:51:51;;;;;;;2.88;1.55;;;4.60;99.90;;;;;;8411703;28;20633;-83
2023/02/25 15:55:52;;;;;;;4.05;2.55;;;4.60;99.90;;;;;;8413453;28;20029;-84
2023/02/25 15:59:56;;;;;;;3.55;1.50;;;4.30;99.90;;;;;;8404161;28;20500;-84
2023/02/25 16:03:57;;;;;;;2.38;1.60;;;4.30;99.90;;;;;;8411115;28;20076;-83
2023/02/25 16:08:21;;;;;;;2.10;1.58;;;4.20;99.90;;;;;;8416137;28;20070;-84
2023/02/25 16:12:23;;;;;;;0.75;0.40;;;4.20;99.90;;;;;;8407866;28;20025;-83
2023/02/25 16:16:25;;;;;;;4.80;1.02;;;4.00;99.90;;;;;;8418581;28;20012;-83
2023/02/25 16:20:45;;;;;;;1.70;0.80;;;3.80;99.90;;;;;;8406521;28;20035;-83
2023/02/25 16:24:48;;;;;;;0.57;0.20;;;3.90;99.90;;;;;;8406163;28;20036;-83
2023/02/25 16:29:01;;;;;;;0.55;0.22;;;3.80;99.90;;;;;;8413429;28;20055;-83
2023/02/25 16:33:11;;;;;;;1.33;0.40;;;3.50;99.90;;;;;;8416803;28;20081;-83
2023/02/25 16:37:17;;;;;;;;;;;3.50;99.90;;;;;;8413353;28;20025;-83
2023/02/25 16:41:17;;;;;;;2.45;0.95;;;3.40;99.90;;;;;;8413657;28;19909;-81
2023/02/25 16:45:32;;;;;;;0.70;0.60;;;3.30;99.90;;;;;;8415146;28;20044;-84
2023/02/25 16:49:38;;;;;;;2.15;0.93;;;3.20;99.90;;;;;;8403142;28;20154;-82
2023/02/25 16:53:44;;;;;;;1.45;0.85;;;2.90;99.90;;;;;;8409841;28;20108;-82
2023/02/25 16:58:12;;;;;;;0.90;0.60;;;2.70;99.90;;;;;;8419394;28;20032;-82
2023/02/25 17:02:16;;;;;;;1.35;0.60;;;2.60;99.90;;;;;;8404522;28;20025;-82
2023/02/25 17:06:19;;;;;;;7.35;0.60;;;2.30;99.90;;;;;;8433192;28;20102;-82
2023/02/25 17:10:25;;;;;;;4.07;2.08;;;2.10;99.90;;;;;;8407382;28;20024;-82
2023/02/25 17:14:26;;;;;;;4.53;1.58;;;1.90;99.90;;;;;;8416972;28;20051;-83
2023/02/25 17:18:31;;;;;;;3.88;1.55;;;1.70;99.90;;;;;;8419845;28;20016;-84
2023/02/25 17:22:34;;;;;;;2.53;1.10;;;1.50;99.90;;;;;;8415703;28;20492;-83
2023/02/25 17:26:39;;;;;;;2.78;1.67;;;1.50;99.90;;;;;;8411054;28;20408;-83
2023/02/25 17:30:46;;;;;;;4.60;1.98;;;1.70;99.90;;;;;;8412402;28;20059;-84
2023/02/25 17:34:48;;;;;;;5.60;1.60;;;1.80;99.90;;;;;;8409844;28;20033;-83
2023/02/25 17:38:54;;;;;;;3.88;1.60;;;1.70;99.90;;;;;;8428378;28;20155;-84
2023/02/25 17:43:20;;;;;;;4.43;2.33;;;2.10;99.90;;;;;;8425733;28;20066;-84
2023/02/25 17:47:26;;;;;;;3.75;1.77;;;2.20;99.90;;;;;;8405377;28;20153;-84
2023/02/25 17:51:29;;;;;;;9.70;2.88;;;2.30;99.90;;;;;;8408585;28;20475;-82
2023/02/25 17:55:36;;;;;;;2.35;1.23;;;2.30;99.90;;;;;;8402772;28;20031;-82
2023/02/25 17:59:39;;;;;;;3.97;1.02;;;2.50;99.90;;;;;;8396304;28;20034;-79
2023/02/25 18:03:45;;;;;;;4.75;1.20;;;2.70;99.90;;;;;;8400114;28;20024;-80
2023/02/25 18:08:06;;;;;;;7.25;1.63;;;2.60;99.90;;;;;;8396812;28;20058;-80
2023/02/25 18:12:25;;;;;;;3.05;0.95;;;2.50;99.90;;;;;;8417270;28;20060;-78
2023/02/25 18:16:36;;;;;;;2.65;1.08;;;2.50;99.90;;;;;;8394301;28;20519;-77
2023/02/25 18:20:40;;;;;;;3.15;1.20;;;2.60;99.90;;;;;;8399888;28;20029;-79
2023/02/25 18:24:54;;;;;;;1.45;0.90;;;2.60;99.90;;;;;;8392149;28;20032;-78
2023/02/25 18:28:58;;;;;;;5.15;1.15;;;2.70;99.90;;;;;;8397074;28;20127;-78
2023/02/25 18:32:59;;;;;;;1.20;0.60;;;2.80;99.90;;;;;;8399636;28;20086;-78
2023/02/25 18:37:00;;;;;;;5.47;1.70;;;2.80;99.90;;;;;;8397394;28;20029;-77
2023/02/25 18:41:01;;;;;;;5.13;1.27;;;2.70;99.90;;;;;;8402278;28;20016;-78
2023/02/25 18:45:13;;;;;;;2.90;1.02;;;2.80;99.90;;;;;;8404451;28;20424;-78
2023/02/25 18:49:14;;;;;;;6.15;2.47;;;2.60;99.90;;;;;;8395494;28;20021;-77
2023/02/25 18:53:22;;;;;;;1.33;1.05;;;1.80;99.90;;;;;;8403523;28;20032;-80
2023/02/25 18:57:25;;;;;;;2.67;1.50;;;1.20;99.90;;;;;;8407768;28;20035;-80
2023/02/25 19:01:29;;;;;;;2.65;1.15;;;0.90;99.90;;;;;;8412628;28;20063;-80
2023/02/25 19:05:30;;;;;;;2.75;1.20;;;0.80;99.90;;;;;;8404099;28;20029;-80
2023/02/25 19:09:30;;;;;;;2.15;1.40;;;0.80;99.90;;;;;;8405598;28;20025;-79
2023/02/25 19:13:37;;;;;;;2.25;1.10;;;0.80;99.90;;;;;;8405011;28;20029;-78
2023/02/25 19:17:38;;;;;;;5.35;2.20;;;0.90;99.90;;;;;;8398650;28;20080;-78
2023/02/25 19:21:40;;;;;;;3.80;1.50;;;0.90;99.90;;;;;;8402621;28;20653;-78
2023/02/25 19:25:42;;;;;;;9.63;2.03;;;1.00;99.90;;;;;;8401165;28;20055;-79
2023/02/25 19:29:43;;;;;;;3.10;1.38;;;1.00;99.90;;;;;;8405487;28;20058;-79
2023/02/25 19:33:44;;;;;;;2.90;1.30;;;1.00;99.90;;;;;;8406117;28;20033;-79
2023/02/25 19:37:45;;;;;;;2.90;1.20;;;1.00;99.90;;;;;;8413954;28;20073;-78
2023/02/25 19:41:45;;;;;;;3.50;1.52;;;1.20;99.90;;;;;;8420405;28;20753;-80
2023/02/25 19:45:46;;;;;;;3.45;1.33;;;1.10;99.90;;;;;;8395085;28;20036;-80
2023/02/25 19:49:47;;;;;;;6.35;1.30;;;1.20;99.90;;;;;;8408883;28;20165;-81
2023/02/25 19:53:47;;;;;;;4.38;1.10;;;1.00;99.90;;;;;;8409037;28;20488;-81
2023/02/25 19:57:48;;;;;;;3.47;1.63;;;0.70;99.90;;;;;;8412740;28;20058;-81
2023/02/25 20:01:48;;;;;;;96.32;28.70;;;0.40;99.90;;;;;;8415252;28;20027;-81
2023/02/25 20:05:49;;;;;;;6.70;3.30;;;0.10;99.90;;;;;;8418141;28;20702;-80
2023/02/25 20:09:50;;;;;;;2.97;2.05;;;-0.10;99.90;;;;;;8408058;28;20024;-81
2023/02/25 20:13:50;;;;;;;3.53;2.10;;;-0.40;99.90;;;;;;8412337;28;20028;-80
2023/02/25 20:17:53;;;;;;;4.53;2.00;;;-0.50;99.90;;;;;;8415875;28;20032;-81
2023/02/25 20:21:54;;;;;;;3.67;1.70;;;-0.40;99.90;;;;;;8416879;28;20044;-81
2023/02/25 20:26:06;;;;;;;3.20;1.63;;;-0.10;99.90;;;;;;8417121;28;20032;-79
2023/02/25 20:30:08;;;;;;;0.40;0.40;;;0.20;99.90;;;;;;8401156;28;20076;-80
2023/02/25 20:34:16;;;;;;;6.00;1.55;;;0.80;99.90;;;;;;8393839;28;20055;-81
2023/02/25 20:38:27;;;;;;;3.17;1.23;;;0.50;99.90;;;;;;8408950;28;20020;-81
2023/02/25 20:42:29;;;;;;;5.05;1.15;;;-0.20;99.90;;;;;;8409587;28;20028;-80
2023/02/25 20:46:30;;;;;;;0.98;0.88;;;-0.40;99.90;;;;;;8419612;28;20024;-78
2023/02/25 20:50:31;;;;;;;8.18;1.50;;;-0.40;99.90;;;;;;8410429;28;20411;-79
2023/02/25 20:54:31;;;;;;;0.57;0.55;;;-0.60;99.90;;;;;;8405696;28;20093;-79
2023/02/25 20:58:32;;;;;;;0.77;0.77;;;-0.70;99.90;;;;;;8399429;28;20056;-79
2023/02/25 21:02:32;;;;;;;1.33;0.73;;;-0.70;99.90;;;;;;8397560;28;20027;-80
2023/02/25 21:06:33;;;;;;;2.47;0.95;;;-0.80;99.90;;;;;;8407045;28;20027;-79
2023/02/25 21:10:34;;;;;;;4.65;1.27;;;-0.70;99.90;;;;;;8414593;28;20039;-79
2023/02/25 21:14:34;;;;;;;5.70;1.13;;;-0.60;99.90;;;;;;8418443;28;20031;-79
2023/02/25 21:18:35;;;;;;;1.65;0.77;;;-0.60;99.90;;;;;;8396681;28;20518;-78
2023/02/25 21:22:36;;;;;;;1.75;0.82;;;-0.50;99.90;;;;;;8396236;28;20396;-79
2023/02/25 21:26:39;;;;;;;1.83;0.85;;;-0.50;99.90;;;;;;8400357;28;20024;-80
2023/02/25 21:30:40;;;;;;;1.23;0.68;;;-0.40;99.90;;;;;;8416131;28;20024;-79
2023/02/25 21:34:40;;;;;;;0.50;0.50;;;-0.30;99.90;;;;;;8397190;28;20036;-79
2023/02/25 21:38:41;;;;;;;1.63;0.73;;;-0.30;99.90;;;;;;8409467;28;20035;-79
2023/02/25 21:42:41;;;;;;;0.10;0.10;;;-0.30;99.90;;;;;;8407953;28;20082;-78
2023/02/25 21:46:42;;;;;;;0.32;0.32;;;-0.20;99.90;;;;;;8415882;28;20115;-78